Munising, MI (49862)

6:06 AM EDT on July 24, 2016 (GMT -0400)
MesoWest | | Change Station

Elev 609 ft 46.43 °N, 86.84 °W | Updated 46 minutes ago

Overcast
Overcast
65 °F
Feels Like 65 °F
N
3
Wind Variable Wind from SE
Gusts 6.0 mph

Today
High -- | Low -- °F
--% Chance of Precip.
Yesterday
High -- | Low -- °F
Precip. -- in
Pressure 29.82 in
Visibility 10.0 miles
Clouds Scattered Clouds 400 ft
Overcast 1300 ft
Dew Point 65 °F
Humidity 100%
Rainfall in
Snow Depth Not available.
6:18 AM 9:26 PM
Waning Gibbous, 77% visible
METAR KSAW 240956Z AUTO 17007KT 10SM SCT004 OVC013 19/18 A2982 RMK AO2 T01860178
Pressure 29.82 in
Visibility 10.0 miles
Clouds Scattered Clouds 400 ft
Overcast 1300 ft
Dew Point 65 °F
Humidity 100%
Rainfall in
Snow Depth Not available.
6:18 AM 9:26 PM
Waning Gibbous, 77% visible
METAR KSAW 240956Z AUTO 17007KT 10SM SCT004 OVC013 19/18 A2982 RMK AO2 T01860178

10-Day Weather Forecast

Almanac

Astronomy

Jul. 24, 2016 Rise Set
Actual Time
Civil Twilight
Nautical Twilight
Astronomical Twilight
Moon
Length of Visible Light
Length of Day
Tomorrow will be .
, % of the Moon is Illuminated

Today's Extremes

State Highs State Lows

Community

WunderPhotos

Upload Photos

1,927,040 photos uploaded!

WunderBlog® & News

Nearby

Air Quality

  Air Quality AQ Index Pollutant
Not available.

Snow Depth

Station Depth Elevation

Earthquake Activity

City Distance Mag. Time & Date
Minimum magnitude displayed is 2.5.

Coastal Water Temperatures

Place Temperature

Stations

Nearby Weather Stations

Station Location Temp. Windchill Dew Point Humidity Wind Precip. Elev Updated Type
                   

Watches & Warnings

There are currently no watches in effect.